sensor_id;sensor_type;location;lat;lon;timestamp;P1;durP1;ratioP1;P2;durP2;ratioP2
51852;SDS011;37894;53.172;6.598;2023-05-13T00:01:19;16.63;;;9.30;;
51852;SDS011;37894;53.172;6.598;2023-05-13T00:03:45;12.10;;;9.23;;
51852;SDS011;37894;53.172;6.598;2023-05-13T00:06:11;13.30;;;9.60;;
51852;SDS011;37894;53.172;6.598;2023-05-13T00:08:37;15.50;;;9.70;;
51852;SDS011;37894;53.172;6.598;2023-05-13T00:11:03;13.88;;;9.38;;
51852;SDS011;37894;53.172;6.598;2023-05-13T00:13:29;12.85;;;8.00;;
51852;SDS011;37894;53.172;6.598;2023-05-13T00:15:55;11.30;;;8.43;;
51852;SDS011;37894;53.172;6.598;2023-05-13T00:18:21;11.70;;;8.60;;
51852;SDS011;37894;53.172;6.598;2023-05-13T00:20:47;12.98;;;8.88;;
51852;SDS011;37894;53.172;6.598;2023-05-13T00:23:13;13.70;;;9.57;;
51852;SDS011;37894;53.172;6.598;2023-05-13T00:25:39;15.93;;;9.48;;
51852;SDS011;37894;53.172;6.598;2023-05-13T00:28:06;12.30;;;9.32;;
51852;SDS011;37894;53.172;6.598;2023-05-13T00:30:32;13.45;;;10.35;;
51852;SDS011;37894;53.172;6.598;2023-05-13T00:32:58;16.20;;;11.73;;
51852;SDS011;37894;53.172;6.598;2023-05-13T00:35:24;14.30;;;11.27;;
51852;SDS011;37894;53.172;6.598;2023-05-13T00:37:50;13.70;;;10.40;;
51852;SDS011;37894;53.172;6.598;2023-05-13T00:40:18;15.60;;;11.43;;
51852;SDS011;37894;53.172;6.598;2023-05-13T00:42:45;14.75;;;11.02;;
51852;SDS011;37894;53.172;6.598;2023-05-13T00:45:11;14.30;;;11.25;;
51852;SDS011;37894;53.172;6.598;2023-05-13T00:47:38;18.38;;;11.45;;
51852;SDS011;37894;53.172;6.598;2023-05-13T00:50:05;16.35;;;12.27;;
51852;SDS011;37894;53.172;6.598;2023-05-13T00:52:32;18.00;;;11.73;;
51852;SDS011;37894;53.172;6.598;2023-05-13T00:54:58;15.65;;;10.93;;
51852;SDS011;37894;53.172;6.598;2023-05-13T00:57:24;13.30;;;11.10;;
51852;SDS011;37894;53.172;6.598;2023-05-13T00:59:50;14.50;;;10.98;;
51852;SDS011;37894;53.172;6.598;2023-05-13T01:07:43;17.98;;;10.88;;
51852;SDS011;37894;53.172;6.598;2023-05-13T01:10:35;14.25;;;11.13;;
51852;SDS011;37894;53.172;6.598;2023-05-13T01:13:07;13.48;;;10.38;;
51852;SDS011;37894;53.172;6.598;2023-05-13T01:15:38;15.13;;;10.88;;
51852;SDS011;37894;53.172;6.598;2023-05-13T01:18:09;16.90;;;10.70;;
51852;SDS011;37894;53.172;6.598;2023-05-13T01:20:40;15.00;;;11.15;;
51852;SDS011;37894;53.172;6.598;2023-05-13T01:23:10;15.80;;;11.23;;
51852;SDS011;37894;53.172;6.598;2023-05-13T01:25:36;16.30;;;10.45;;
51852;SDS011;37894;53.172;6.598;2023-05-13T01:28:05;15.32;;;11.25;;
51852;SDS011;37894;53.172;6.598;2023-05-13T01:30:31;14.77;;;12.07;;
51852;SDS011;37894;53.172;6.598;2023-05-13T01:32:58;14.00;;;11.65;;
51852;SDS011;37894;53.172;6.598;2023-05-13T01:35:24;17.50;;;13.23;;
51852;SDS011;37894;53.172;6.598;2023-05-13T01:37:52;14.07;;;11.00;;
51852;SDS011;37894;53.172;6.598;2023-05-13T01:40:21;17.75;;;12.43;;
51852;SDS011;37894;53.172;6.598;2023-05-13T01:42:46;19.35;;;12.25;;
51852;SDS011;37894;53.172;6.598;2023-05-13T01:45:13;20.83;;;12.18;;
51852;SDS011;37894;53.172;6.598;2023-05-13T01:47:39;17.27;;;12.55;;
51852;SDS011;37894;53.172;6.598;2023-05-13T01:50:06;14.30;;;11.88;;
51852;SDS011;37894;53.172;6.598;2023-05-13T01:52:32;16.90;;;12.35;;
51852;SDS011;37894;53.172;6.598;2023-05-13T01:54:58;20.17;;;13.32;;
51852;SDS011;37894;53.172;6.598;2023-05-13T01:57:24;16.73;;;12.32;;
51852;SDS011;37894;53.172;6.598;2023-05-13T01:59:50;22.05;;;14.95;;
51852;SDS011;37894;53.172;6.598;2023-05-13T02:02:17;16.70;;;13.88;;
51852;SDS011;37894;53.172;6.598;2023-05-13T02:04:43;22.50;;;14.32;;
51852;SDS011;37894;53.172;6.598;2023-05-13T02:07:09;23.17;;;14.98;;
51852;SDS011;37894;53.172;6.598;2023-05-13T02:09:35;19.25;;;14.35;;
51852;SDS011;37894;53.172;6.598;2023-05-13T02:12:01;17.27;;;13.90;;
51852;SDS011;37894;53.172;6.598;2023-05-13T02:14:27;17.55;;;13.52;;
51852;SDS011;37894;53.172;6.598;2023-05-13T02:16:53;17.45;;;13.05;;
51852;SDS011;37894;53.172;6.598;2023-05-13T02:19:19;19.00;;;13.50;;
51852;SDS011;37894;53.172;6.598;2023-05-13T02:21:45;21.30;;;13.13;;
51852;SDS011;37894;53.172;6.598;2023-05-13T02:24:11;19.90;;;14.07;;
51852;SDS011;37894;53.172;6.598;2023-05-13T02:26:37;22.25;;;13.98;;
51852;SDS011;37894;53.172;6.598;2023-05-13T02:29:05;17.95;;;12.68;;
51852;SDS011;37894;53.172;6.598;2023-05-13T02:31:31;21.98;;;12.40;;
51852;SDS011;37894;53.172;6.598;2023-05-13T02:33:57;16.70;;;12.05;;
51852;SDS011;37894;53.172;6.598;2023-05-13T02:36:23;22.80;;;13.30;;
51852;SDS011;37894;53.172;6.598;2023-05-13T02:38:49;17.63;;;12.93;;
51852;SDS011;37894;53.172;6.598;2023-05-13T02:41:14;19.60;;;12.50;;
51852;SDS011;37894;53.172;6.598;2023-05-13T02:43:41;18.10;;;12.77;;
51852;SDS011;37894;53.172;6.598;2023-05-13T02:46:07;19.58;;;13.40;;
51852;SDS011;37894;53.172;6.598;2023-05-13T02:48:33;18.27;;;12.38;;
51852;SDS011;37894;53.172;6.598;2023-05-13T02:50:58;15.02;;;12.27;;
51852;SDS011;37894;53.172;6.598;2023-05-13T02:53:24;19.08;;;13.48;;
51852;SDS011;37894;53.172;6.598;2023-05-13T02:55:51;16.38;;;12.75;;
51852;SDS011;37894;53.172;6.598;2023-05-13T02:58:18;22.05;;;13.23;;
51852;SDS011;37894;53.172;6.598;2023-05-13T03:00:44;17.80;;;13.02;;
51852;SDS011;37894;53.172;6.598;2023-05-13T03:03:10;15.80;;;12.98;;
51852;SDS011;37894;53.172;6.598;2023-05-13T03:05:36;20.20;;;14.10;;
51852;SDS011;37894;53.172;6.598;2023-05-13T03:08:02;18.08;;;14.50;;
51852;SDS011;37894;53.172;6.598;2023-05-13T03:10:28;25.95;;;15.18;;
51852;SDS011;37894;53.172;6.598;2023-05-13T03:12:54;22.08;;;14.52;;
51852;SDS011;37894;53.172;6.598;2023-05-13T03:15:21;20.40;;;14.07;;
51852;SDS011;37894;53.172;6.598;2023-05-13T03:17:47;21.02;;;14.52;;
51852;SDS011;37894;53.172;6.598;2023-05-13T03:20:12;19.23;;;14.65;;
51852;SDS011;37894;53.172;6.598;2023-05-13T03:22:38;19.58;;;14.35;;
51852;SDS011;37894;53.172;6.598;2023-05-13T03:25:04;23.58;;;14.18;;
51852;SDS011;37894;53.172;6.598;2023-05-13T03:27:31;22.65;;;14.95;;
51852;SDS011;37894;53.172;6.598;2023-05-13T03:29:56;25.15;;;14.60;;
51852;SDS011;37894;53.172;6.598;2023-05-13T03:32:22;20.23;;;15.25;;
51852;SDS011;37894;53.172;6.598;2023-05-13T03:34:49;17.92;;;15.07;;
51852;SDS011;37894;53.172;6.598;2023-05-13T03:37:15;25.92;;;16.65;;
51852;SDS011;37894;53.172;6.598;2023-05-13T03:39:41;24.00;;;15.82;;
51852;SDS011;37894;53.172;6.598;2023-05-13T03:42:07;22.35;;;15.70;;
51852;SDS011;37894;53.172;6.598;2023-05-13T03:44:33;22.65;;;15.82;;
51852;SDS011;37894;53.172;6.598;2023-05-13T03:46:59;21.52;;;16.10;;
51852;SDS011;37894;53.172;6.598;2023-05-13T03:49:24;21.35;;;15.25;;
51852;SDS011;37894;53.172;6.598;2023-05-13T03:51:51;25.35;;;16.85;;
51852;SDS011;37894;53.172;6.598;2023-05-13T03:54:17;20.20;;;15.20;;
51852;SDS011;37894;53.172;6.598;2023-05-13T03:56:42;24.60;;;16.80;;
51852;SDS011;37894;53.172;6.598;2023-05-13T03:59:08;22.52;;;16.00;;
51852;SDS011;37894;53.172;6.598;2023-05-13T04:01:34;24.83;;;16.00;;
51852;SDS011;37894;53.172;6.598;2023-05-13T04:04:00;24.02;;;16.58;;
51852;SDS011;37894;53.172;6.598;2023-05-13T04:06:26;23.88;;;15.77;;
51852;SDS011;37894;53.172;6.598;2023-05-13T04:08:52;22.63;;;16.42;;
51852;SDS011;37894;53.172;6.598;2023-05-13T04:11:18;24.63;;;17.08;;
51852;SDS011;37894;53.172;6.598;2023-05-13T04:13:44;22.40;;;17.55;;
51852;SDS011;37894;53.172;6.598;2023-05-13T04:16:10;21.25;;;16.65;;
51852;SDS011;37894;53.172;6.598;2023-05-13T04:18:36;25.02;;;16.50;;
51852;SDS011;37894;53.172;6.598;2023-05-13T04:21:05;24.23;;;19.02;;
51852;SDS011;37894;53.172;6.598;2023-05-13T04:23:31;26.33;;;18.98;;
51852;SDS011;37894;53.172;6.598;2023-05-13T04:25:58;26.00;;;18.02;;
51852;SDS011;37894;53.172;6.598;2023-05-13T04:28:24;27.98;;;19.85;;
51852;SDS011;37894;53.172;6.598;2023-05-13T04:30:49;24.58;;;18.35;;
51852;SDS011;37894;53.172;6.598;2023-05-13T04:33:15;26.88;;;18.23;;
51852;SDS011;37894;53.172;6.598;2023-05-13T04:35:41;27.15;;;18.83;;
51852;SDS011;37894;53.172;6.598;2023-05-13T04:38:07;29.83;;;18.05;;
51852;SDS011;37894;53.172;6.598;2023-05-13T04:40:33;25.65;;;17.85;;
51852;SDS011;37894;53.172;6.598;2023-05-13T04:42:59;22.33;;;17.33;;
51852;SDS011;37894;53.172;6.598;2023-05-13T04:45:24;23.73;;;15.77;;
51852;SDS011;37894;53.172;6.598;2023-05-13T04:47:50;23.88;;;16.35;;
51852;SDS011;37894;53.172;6.598;2023-05-13T04:50:16;20.25;;;16.25;;
51852;SDS011;37894;53.172;6.598;2023-05-13T04:52:42;23.83;;;15.35;;
51852;SDS011;37894;53.172;6.598;2023-05-13T04:55:09;22.35;;;15.20;;
51852;SDS011;37894;53.172;6.598;2023-05-13T04:57:35;21.85;;;16.45;;
51852;SDS011;37894;53.172;6.598;2023-05-13T05:00:01;19.15;;;14.35;;
51852;SDS011;37894;53.172;6.598;2023-05-13T05:02:28;21.15;;;15.40;;
51852;SDS011;37894;53.172;6.598;2023-05-13T05:04:54;22.17;;;14.95;;
51852;SDS011;37894;53.172;6.598;2023-05-13T05:07:21;17.48;;;13.85;;
51852;SDS011;37894;53.172;6.598;2023-05-13T05:09:47;19.33;;;13.07;;
51852;SDS011;37894;53.172;6.598;2023-05-13T05:12:13;20.60;;;13.20;;
51852;SDS011;37894;53.172;6.598;2023-05-13T05:14:39;17.85;;;13.38;;
51852;SDS011;37894;53.172;6.598;2023-05-13T05:17:05;19.55;;;13.13;;
51852;SDS011;37894;53.172;6.598;2023-05-13T05:19:31;18.63;;;12.88;;
51852;SDS011;37894;53.172;6.598;2023-05-13T05:21:57;19.98;;;12.68;;
51852;SDS011;37894;53.172;6.598;2023-05-13T05:24:22;18.65;;;11.88;;
51852;SDS011;37894;53.172;6.598;2023-05-13T05:26:48;18.50;;;12.55;;
51852;SDS011;37894;53.172;6.598;2023-05-13T05:29:14;15.25;;;11.32;;
51852;SDS011;37894;53.172;6.598;2023-05-13T05:31:49;18.83;;;11.73;;
51852;SDS011;37894;53.172;6.598;2023-05-13T05:34:15;16.17;;;11.52;;
51852;SDS011;37894;53.172;6.598;2023-05-13T05:36:41;16.35;;;11.32;;
51852;SDS011;37894;53.172;6.598;2023-05-13T05:39:06;16.27;;;11.20;;
51852;SDS011;37894;53.172;6.598;2023-05-13T05:41:32;13.65;;;10.52;;
51852;SDS011;37894;53.172;6.598;2023-05-13T05:43:58;15.57;;;10.80;;
51852;SDS011;37894;53.172;6.598;2023-05-13T05:46:23;15.52;;;10.40;;
51852;SDS011;37894;53.172;6.598;2023-05-13T05:48:49;15.32;;;10.82;;
51852;SDS011;37894;53.172;6.598;2023-05-13T05:51:15;15.82;;;10.05;;
51852;SDS011;37894;53.172;6.598;2023-05-13T05:53:41;16.08;;;10.25;;
51852;SDS011;37894;53.172;6.598;2023-05-13T05:56:07;16.08;;;10.20;;
51852;SDS011;37894;53.172;6.598;2023-05-13T05:58:33;15.35;;;10.30;;
51852;SDS011;37894;53.172;6.598;2023-05-13T06:01:00;14.98;;;10.07;;
51852;SDS011;37894;53.172;6.598;2023-05-13T06:03:26;16.88;;;9.38;;
51852;SDS011;37894;53.172;6.598;2023-05-13T06:05:52;13.35;;;9.85;;
51852;SDS011;37894;53.172;6.598;2023-05-13T06:08:18;13.30;;;9.95;;
51852;SDS011;37894;53.172;6.598;2023-05-13T06:10:44;15.27;;;9.50;;
51852;SDS011;37894;53.172;6.598;2023-05-13T06:13:10;15.35;;;10.60;;
51852;SDS011;37894;53.172;6.598;2023-05-13T06:15:39;14.23;;;9.98;;
51852;SDS011;37894;53.172;6.598;2023-05-13T06:18:05;15.93;;;10.05;;
51852;SDS011;37894;53.172;6.598;2023-05-13T06:20:30;15.88;;;9.45;;
51852;SDS011;37894;53.172;6.598;2023-05-13T06:22:57;12.60;;;9.73;;
51852;SDS011;37894;53.172;6.598;2023-05-13T06:25:22;14.77;;;9.25;;
51852;SDS011;37894;53.172;6.598;2023-05-13T06:27:48;11.20;;;8.63;;
51852;SDS011;37894;53.172;6.598;2023-05-13T06:30:14;13.55;;;9.15;;
51852;SDS011;37894;53.172;6.598;2023-05-13T06:32:40;15.73;;;8.95;;
51852;SDS011;37894;53.172;6.598;2023-05-13T06:35:06;13.30;;;8.68;;
51852;SDS011;37894;53.172;6.598;2023-05-13T06:37:32;14.00;;;8.55;;
51852;SDS011;37894;53.172;6.598;2023-05-13T06:39:58;11.57;;;8.20;;
51852;SDS011;37894;53.172;6.598;2023-05-13T06:42:24;13.80;;;8.63;;
51852;SDS011;37894;53.172;6.598;2023-05-13T06:44:49;12.38;;;8.35;;
51852;SDS011;37894;53.172;6.598;2023-05-13T06:47:16;11.60;;;8.45;;
51852;SDS011;37894;53.172;6.598;2023-05-13T06:49:42;11.73;;;8.45;;
51852;SDS011;37894;53.172;6.598;2023-05-13T06:52:08;14.35;;;8.85;;
51852;SDS011;37894;53.172;6.598;2023-05-13T06:54:34;12.45;;;8.18;;
51852;SDS011;37894;53.172;6.598;2023-05-13T06:56:59;11.50;;;8.32;;
51852;SDS011;37894;53.172;6.598;2023-05-13T06:59:25;12.25;;;8.65;;
51852;SDS011;37894;53.172;6.598;2023-05-13T07:01:51;10.57;;;8.48;;
51852;SDS011;37894;53.172;6.598;2023-05-13T07:04:17;14.70;;;8.68;;
51852;SDS011;37894;53.172;6.598;2023-05-13T07:06:42;12.80;;;9.20;;
51852;SDS011;37894;53.172;6.598;2023-05-13T07:09:08;13.80;;;8.88;;
51852;SDS011;37894;53.172;6.598;2023-05-13T07:11:34;13.52;;;8.73;;
51852;SDS011;37894;53.172;6.598;2023-05-13T07:14:00;15.65;;;9.48;;
51852;SDS011;37894;53.172;6.598;2023-05-13T07:16:26;11.32;;;8.43;;
51852;SDS011;37894;53.172;6.598;2023-05-13T07:18:52;9.73;;;7.85;;
51852;SDS011;37894;53.172;6.598;2023-05-13T07:21:20;12.32;;;8.30;;
51852;SDS011;37894;53.172;6.598;2023-05-13T07:23:46;12.00;;;8.15;;
51852;SDS011;37894;53.172;6.598;2023-05-13T07:26:12;11.85;;;7.85;;
51852;SDS011;37894;53.172;6.598;2023-05-13T07:28:38;10.68;;;7.90;;
51852;SDS011;37894;53.172;6.598;2023-05-13T07:31:04;14.60;;;7.72;;
51852;SDS011;37894;53.172;6.598;2023-05-13T07:33:30;12.05;;;7.63;;
51852;SDS011;37894;53.172;6.598;2023-05-13T07:35:56;13.45;;;8.13;;
51852;SDS011;37894;53.172;6.598;2023-05-13T07:38:22;14.13;;;7.20;;
51852;SDS011;37894;53.172;6.598;2023-05-13T07:40:48;10.13;;;8.02;;
51852;SDS011;37894;53.172;6.598;2023-05-13T07:43:13;10.98;;;7.18;;
51852;SDS011;37894;53.172;6.598;2023-05-13T07:45:44;13.68;;;7.60;;
51852;SDS011;37894;53.172;6.598;2023-05-13T07:48:09;9.73;;;6.97;;
51852;SDS011;37894;53.172;6.598;2023-05-13T07:50:35;9.15;;;7.15;;
51852;SDS011;37894;53.172;6.598;2023-05-13T07:53:01;15.40;;;8.00;;
51852;SDS011;37894;53.172;6.598;2023-05-13T07:55:27;15.98;;;7.43;;
51852;SDS011;37894;53.172;6.598;2023-05-13T07:57:53;12.70;;;7.70;;
51852;SDS011;37894;53.172;6.598;2023-05-13T08:00:19;11.80;;;7.22;;
51852;SDS011;37894;53.172;6.598;2023-05-13T08:02:44;11.55;;;7.45;;
51852;SDS011;37894;53.172;6.598;2023-05-13T08:05:10;9.98;;;7.45;;
51852;SDS011;37894;53.172;6.598;2023-05-13T08:07:36;9.63;;;7.18;;
51852;SDS011;37894;53.172;6.598;2023-05-13T08:10:02;9.02;;;7.15;;
51852;SDS011;37894;53.172;6.598;2023-05-13T08:12:28;13.52;;;7.55;;
51852;SDS011;37894;53.172;6.598;2023-05-13T08:14:54;11.75;;;7.13;;
51852;SDS011;37894;53.172;6.598;2023-05-13T08:17:19;8.00;;;6.57;;
51852;SDS011;37894;53.172;6.598;2023-05-13T08:19:45;8.25;;;6.75;;
51852;SDS011;37894;53.172;6.598;2023-05-13T08:22:11;10.43;;;7.28;;
51852;SDS011;37894;53.172;6.598;2023-05-13T08:24:37;10.95;;;6.65;;
51852;SDS011;37894;53.172;6.598;2023-05-13T08:27:04;9.93;;;5.93;;
51852;SDS011;37894;53.172;6.598;2023-05-13T08:29:30;8.10;;;5.88;;
51852;SDS011;37894;53.172;6.598;2023-05-13T08:31:56;10.23;;;6.95;;
51852;SDS011;37894;53.172;6.598;2023-05-13T08:34:22;9.63;;;6.15;;
51852;SDS011;37894;53.172;6.598;2023-05-13T08:36:47;9.60;;;6.53;;
51852;SDS011;37894;53.172;6.598;2023-05-13T08:39:13;9.60;;;6.90;;
51852;SDS011;37894;53.172;6.598;2023-05-13T08:41:40;12.07;;;6.47;;
51852;SDS011;37894;53.172;6.598;2023-05-13T08:44:08;8.77;;;6.72;;
51852;SDS011;37894;53.172;6.598;2023-05-13T08:46:37;11.77;;;5.70;;
51852;SDS011;37894;53.172;6.598;2023-05-13T08:49:05;8.32;;;5.38;;
51852;SDS011;37894;53.172;6.598;2023-05-13T08:51:31;11.90;;;6.22;;
51852;SDS011;37894;53.172;6.598;2023-05-13T08:53:57;13.27;;;5.57;;
51852;SDS011;37894;53.172;6.598;2023-05-13T08:56:25;9.43;;;5.47;;
51852;SDS011;37894;53.172;6.598;2023-05-13T08:58:53;9.35;;;5.88;;
51852;SDS011;37894;53.172;6.598;2023-05-13T09:01:19;8.77;;;5.45;;
51852;SDS011;37894;53.172;6.598;2023-05-13T09:03:51;8.73;;;5.70;;
51852;SDS011;37894;53.172;6.598;2023-05-13T09:06:27;9.25;;;4.88;;
51852;SDS011;37894;53.172;6.598;2023-05-13T09:08:53;10.68;;;5.07;;
51852;SDS011;37894;53.172;6.598;2023-05-13T09:11:20;8.23;;;5.32;;
51852;SDS011;37894;53.172;6.598;2023-05-13T09:14:00;9.23;;;4.38;;
51852;SDS011;37894;53.172;6.598;2023-05-13T09:16:27;8.20;;;5.07;;
51852;SDS011;37894;53.172;6.598;2023-05-13T09:18:57;6.38;;;4.63;;
51852;SDS011;37894;53.172;6.598;2023-05-13T09:21:29;12.55;;;5.10;;
51852;SDS011;37894;53.172;6.598;2023-05-13T09:24:29;10.13;;;5.22;;
51852;SDS011;37894;53.172;6.598;2023-05-13T09:26:48;10.27;;;5.28;;
51852;SDS011;37894;53.172;6.598;2023-05-13T09:31:49;10.48;;;4.88;;
51852;SDS011;37894;53.172;6.598;2023-05-13T09:34:27;8.25;;;4.97;;
51852;SDS011;37894;53.172;6.598;2023-05-13T09:36:55;10.07;;;4.68;;
51852;SDS011;37894;53.172;6.598;2023-05-13T09:39:28;5.90;;;4.50;;
51852;SDS011;37894;53.172;6.598;2023-05-13T09:41:56;8.70;;;4.85;;
51852;SDS011;37894;53.172;6.598;2023-05-13T09:44:21;7.65;;;4.18;;
51852;SDS011;37894;53.172;6.598;2023-05-13T09:46:49;9.82;;;4.55;;
51852;SDS011;37894;53.172;6.598;2023-05-13T09:49:15;8.70;;;5.00;;
51852;SDS011;37894;53.172;6.598;2023-05-13T09:51:43;8.90;;;4.75;;
51852;SDS011;37894;53.172;6.598;2023-05-13T09:54:09;8.73;;;4.60;;
51852;SDS011;37894;53.172;6.598;2023-05-13T09:56:35;9.40;;;4.30;;
51852;SDS011;37894;53.172;6.598;2023-05-13T09:59:02;7.28;;;4.13;;
51852;SDS011;37894;53.172;6.598;2023-05-13T10:01:28;19.13;;;5.95;;
51852;SDS011;37894;53.172;6.598;2023-05-13T10:03:54;8.70;;;4.55;;
51852;SDS011;37894;53.172;6.598;2023-05-13T10:06:23;8.65;;;5.05;;
51852;SDS011;37894;53.172;6.598;2023-05-13T10:08:50;9.85;;;4.57;;
51852;SDS011;37894;53.172;6.598;2023-05-13T10:11:17;9.02;;;5.15;;
51852;SDS011;37894;53.172;6.598;2023-05-13T10:13:54;7.47;;;4.28;;
51852;SDS011;37894;53.172;6.598;2023-05-13T10:16:24;7.78;;;4.55;;
51852;SDS011;37894;53.172;6.598;2023-05-13T10:18:51;7.18;;;4.65;;
51852;SDS011;37894;53.172;6.598;2023-05-13T10:21:20;7.32;;;4.70;;
51852;SDS011;37894;53.172;6.598;2023-05-13T10:23:46;10.25;;;4.70;;
51852;SDS011;37894;53.172;6.598;2023-05-13T10:26:15;5.80;;;3.95;;
51852;SDS011;37894;53.172;6.598;2023-05-13T10:28:42;8.60;;;4.07;;
51852;SDS011;37894;53.172;6.598;2023-05-13T10:31:08;6.70;;;4.60;;
51852;SDS011;37894;53.172;6.598;2023-05-13T10:33:33;16.20;;;4.35;;
51852;SDS011;37894;53.172;6.598;2023-05-13T10:44:43;6.18;;;3.95;;
51852;SDS011;37894;53.172;6.598;2023-05-13T10:47:09;8.52;;;4.22;;
51852;SDS011;37894;53.172;6.598;2023-05-13T10:49:35;7.75;;;4.55;;
51852;SDS011;37894;53.172;6.598;2023-05-13T10:52:05;6.93;;;4.13;;
51852;SDS011;37894;53.172;6.598;2023-05-13T10:54:36;7.53;;;4.07;;
51852;SDS011;37894;53.172;6.598;2023-05-13T10:57:03;7.55;;;3.70;;
51852;SDS011;37894;53.172;6.598;2023-05-13T10:59:29;7.75;;;4.32;;
51852;SDS011;37894;53.172;6.598;2023-05-13T11:01:55;8.80;;;4.88;;
51852;SDS011;37894;53.172;6.598;2023-05-13T11:04:21;5.55;;;3.80;;
51852;SDS011;37894;53.172;6.598;2023-05-13T11:06:47;10.25;;;4.38;;
51852;SDS011;37894;53.172;6.598;2023-05-13T11:11:56;7.87;;;4.43;;
51852;SDS011;37894;53.172;6.598;2023-05-13T11:14:24;7.20;;;3.83;;
51852;SDS011;37894;53.172;6.598;2023-05-13T11:19:43;7.07;;;3.90;;
51852;SDS011;37894;53.172;6.598;2023-05-13T11:22:13;5.72;;;4.10;;
51852;SDS011;37894;53.172;6.598;2023-05-13T11:25:02;6.78;;;3.60;;
51852;SDS011;37894;53.172;6.598;2023-05-13T11:27:31;5.82;;;3.15;;
51852;SDS011;37894;53.172;6.598;2023-05-13T11:30:04;8.85;;;3.65;;
51852;SDS011;37894;53.172;6.598;2023-05-13T11:35:20;5.63;;;3.58;;
51852;SDS011;37894;53.172;6.598;2023-05-13T11:37:47;7.10;;;3.20;;
51852;SDS011;37894;53.172;6.598;2023-05-13T11:40:23;10.52;;;3.90;;
51852;SDS011;37894;53.172;6.598;2023-05-13T11:42:50;5.75;;;3.15;;
51852;SDS011;37894;53.172;6.598;2023-05-13T11:45:16;6.15;;;3.40;;
51852;SDS011;37894;53.172;6.598;2023-05-13T11:47:43;4.80;;;3.00;;
51852;SDS011;37894;53.172;6.598;2023-05-13T11:50:19;5.50;;;3.33;;
51852;SDS011;37894;53.172;6.598;2023-05-13T11:52:55;7.40;;;4.95;;
51852;SDS011;37894;53.172;6.598;2023-05-13T11:57:55;9.93;;;4.50;;
51852;SDS011;37894;53.172;6.598;2023-05-13T12:00:32;7.70;;;4.55;;
51852;SDS011;37894;53.172;6.598;2023-05-13T12:02:59;7.28;;;4.18;;
51852;SDS011;37894;53.172;6.598;2023-05-13T12:05:27;9.05;;;4.25;;
51852;SDS011;37894;53.172;6.598;2023-05-13T12:07:56;8.48;;;3.97;;
51852;SDS011;37894;53.172;6.598;2023-05-13T12:10:22;9.38;;;4.03;;
51852;SDS011;37894;53.172;6.598;2023-05-13T12:12:48;8.02;;;4.15;;
51852;SDS011;37894;53.172;6.598;2023-05-13T12:15:15;10.20;;;3.92;;
51852;SDS011;37894;53.172;6.598;2023-05-13T12:17:42;11.85;;;4.22;;
51852;SDS011;37894;53.172;6.598;2023-05-13T12:20:10;7.57;;;4.20;;
51852;SDS011;37894;53.172;6.598;2023-05-13T12:28:10;5.20;;;2.90;;
51852;SDS011;37894;53.172;6.598;2023-05-13T12:30:47;7.05;;;2.58;;
51852;SDS011;37894;53.172;6.598;2023-05-13T12:33:14;9.73;;;2.95;;
51852;SDS011;37894;53.172;6.598;2023-05-13T12:35:41;4.53;;;2.90;;
51852;SDS011;37894;53.172;6.598;2023-05-13T12:38:12;10.23;;;3.17;;
51852;SDS011;37894;53.172;6.598;2023-05-13T12:40:40;5.38;;;3.30;;
51852;SDS011;37894;53.172;6.598;2023-05-13T12:43:06;5.75;;;3.20;;
51852;SDS011;37894;53.172;6.598;2023-05-13T12:45:34;10.73;;;3.88;;
51852;SDS011;37894;53.172;6.598;2023-05-13T12:48:03;6.35;;;3.25;;
51852;SDS011;37894;53.172;6.598;2023-05-13T12:50:28;5.40;;;2.85;;
51852;SDS011;37894;53.172;6.598;2023-05-13T12:52:54;6.68;;;3.45;;
51852;SDS011;37894;53.172;6.598;2023-05-13T12:55:21;7.38;;;3.80;;
51852;SDS011;37894;53.172;6.598;2023-05-13T12:58:00;6.82;;;3.53;;
51852;SDS011;37894;53.172;6.598;2023-05-13T13:00:27;6.90;;;3.17;;
51852;SDS011;37894;53.172;6.598;2023-05-13T13:02:53;9.68;;;3.85;;
51852;SDS011;37894;53.172;6.598;2023-05-13T13:05:20;9.35;;;3.28;;
51852;SDS011;37894;53.172;6.598;2023-05-13T13:07:46;7.00;;;2.63;;
51852;SDS011;37894;53.172;6.598;2023-05-13T13:10:12;4.93;;;2.72;;
51852;SDS011;37894;53.172;6.598;2023-05-13T13:12:38;7.70;;;3.15;;
51852;SDS011;37894;53.172;6.598;2023-05-13T13:15:05;10.15;;;3.45;;
51852;SDS011;37894;53.172;6.598;2023-05-13T13:17:31;7.20;;;3.45;;
51852;SDS011;37894;53.172;6.598;2023-05-13T13:19:57;4.72;;;3.28;;
51852;SDS011;37894;53.172;6.598;2023-05-13T13:22:22;7.90;;;3.85;;
51852;SDS011;37894;53.172;6.598;2023-05-13T13:24:48;11.80;;;3.40;;
51852;SDS011;37894;53.172;6.598;2023-05-13T13:27:14;5.93;;;3.55;;
51852;SDS011;37894;53.172;6.598;2023-05-13T13:29:39;8.13;;;3.10;;
51852;SDS011;37894;53.172;6.598;2023-05-13T13:32:05;6.30;;;2.88;;
51852;SDS011;37894;53.172;6.598;2023-05-13T13:34:31;8.63;;;3.00;;
51852;SDS011;37894;53.172;6.598;2023-05-13T13:36:57;5.95;;;3.25;;
51852;SDS011;37894;53.172;6.598;2023-05-13T13:39:22;6.80;;;2.92;;
51852;SDS011;37894;53.172;6.598;2023-05-13T13:41:48;6.03;;;3.03;;
51852;SDS011;37894;53.172;6.598;2023-05-13T13:44:14;6.35;;;2.88;;
51852;SDS011;37894;53.172;6.598;2023-05-13T13:46:40;6.68;;;2.88;;
51852;SDS011;37894;53.172;6.598;2023-05-13T13:49:05;9.25;;;3.10;;
51852;SDS011;37894;53.172;6.598;2023-05-13T13:51:31;7.13;;;2.97;;
51852;SDS011;37894;53.172;6.598;2023-05-13T13:54:02;6.13;;;2.47;;
51852;SDS011;37894;53.172;6.598;2023-05-13T13:56:31;5.82;;;2.97;;
51852;SDS011;37894;53.172;6.598;2023-05-13T13:58:57;7.80;;;2.90;;
51852;SDS011;37894;53.172;6.598;2023-05-13T14:01:23;4.80;;;2.75;;
51852;SDS011;37894;53.172;6.598;2023-05-13T14:03:49;6.53;;;2.25;;
51852;SDS011;37894;53.172;6.598;2023-05-13T14:06:15;8.57;;;2.70;;
51852;SDS011;37894;53.172;6.598;2023-05-13T14:08:41;6.90;;;2.78;;
51852;SDS011;37894;53.172;6.598;2023-05-13T14:11:06;6.72;;;2.70;;
51852;SDS011;37894;53.172;6.598;2023-05-13T14:13:32;4.65;;;3.00;;
51852;SDS011;37894;53.172;6.598;2023-05-13T14:15:58;7.35;;;3.33;;
51852;SDS011;37894;53.172;6.598;2023-05-13T14:18:23;6.45;;;2.83;;
51852;SDS011;37894;53.172;6.598;2023-05-13T14:20:49;5.78;;;2.83;;
51852;SDS011;37894;53.172;6.598;2023-05-13T14:23:16;8.10;;;2.88;;
51852;SDS011;37894;53.172;6.598;2023-05-13T14:25:43;6.50;;;3.33;;
51852;SDS011;37894;53.172;6.598;2023-05-13T14:28:09;5.53;;;2.95;;
51852;SDS011;37894;53.172;6.598;2023-05-13T14:30:36;7.05;;;3.35;;
51852;SDS011;37894;53.172;6.598;2023-05-13T14:33:02;5.95;;;3.42;;
51852;SDS011;37894;53.172;6.598;2023-05-13T14:35:28;7.85;;;3.13;;
51852;SDS011;37894;53.172;6.598;2023-05-13T14:37:54;9.57;;;3.00;;
51852;SDS011;37894;53.172;6.598;2023-05-13T14:40:20;7.07;;;2.90;;
51852;SDS011;37894;53.172;6.598;2023-05-13T14:42:45;7.90;;;3.55;;
51852;SDS011;37894;53.172;6.598;2023-05-13T14:45:13;8.90;;;3.25;;
51852;SDS011;37894;53.172;6.598;2023-05-13T14:47:39;5.88;;;3.17;;
51852;SDS011;37894;53.172;6.598;2023-05-13T14:50:05;6.40;;;3.35;;
51852;SDS011;37894;53.172;6.598;2023-05-13T14:52:31;7.38;;;3.10;;
51852;SDS011;37894;53.172;6.598;2023-05-13T14:54:56;7.57;;;3.25;;
51852;SDS011;37894;53.172;6.598;2023-05-13T14:57:22;8.10;;;3.67;;
51852;SDS011;37894;53.172;6.598;2023-05-13T14:59:48;4.82;;;3.35;;
51852;SDS011;37894;53.172;6.598;2023-05-13T15:02:13;7.28;;;4.28;;
51852;SDS011;37894;53.172;6.598;2023-05-13T15:04:41;10.25;;;3.53;;